createdAt,value
2023-03-02T00:01:27.815Z,2.40
2023-03-02T00:03:59.586Z,2.10
2023-03-02T00:06:29.716Z,2.40
2023-03-02T00:09:00.502Z,2.40
2023-03-02T00:11:29.327Z,2.40
2023-03-02T00:13:57.467Z,2.40
2023-03-02T00:16:25.684Z,2.50
2023-03-02T00:18:53.861Z,2.60
2023-03-02T00:21:24.583Z,2.60
2023-03-02T00:23:52.804Z,2.60
2023-03-02T00:26:21.546Z,2.50
2023-03-02T00:28:49.740Z,2.50
2023-03-02T00:31:18.005Z,2.60
2023-03-02T00:33:46.179Z,2.60
2023-03-02T00:36:18.047Z,2.60
2023-03-02T00:38:48.367Z,2.20
2023-03-02T00:41:17.615Z,2.40
2023-03-02T00:43:45.954Z,2.40
2023-03-02T00:46:15.721Z,2.50
2023-03-02T00:48:43.896Z,2.40
2023-03-02T00:51:12.608Z,2.40
2023-03-02T00:53:42.362Z,2.50
2023-03-02T00:56:12.404Z,2.40
2023-03-02T00:58:45.689Z,2.40
2023-03-02T01:01:15.773Z,2.50
2023-03-02T01:03:48.012Z,2.60
2023-03-02T01:06:18.141Z,2.60
2023-03-02T01:08:46.732Z,2.60
2023-03-02T01:11:17.481Z,2.60
2023-03-02T01:13:45.988Z,2.50
2023-03-02T01:16:14.853Z,2.60
2023-03-02T01:18:43.223Z,2.50
2023-03-02T01:21:13.648Z,2.50
2023-03-02T01:23:42.472Z,2.50
2023-03-02T01:26:11.106Z,2.50
2023-03-02T01:28:40.748Z,2.50
2023-03-02T01:31:08.895Z,2.40
2023-03-02T01:33:37.032Z,2.40
2023-03-02T01:36:05.538Z,2.40
2023-03-02T01:38:33.803Z,2.20
2023-03-02T01:41:01.949Z,2.20
2023-03-02T01:43:30.236Z,2.20
2023-03-02T01:46:02.798Z,2.30
2023-03-02T01:48:49.754Z,2.10
2023-03-02T01:51:27.119Z,2.00
2023-03-02T01:54:01.898Z,2.10
2023-03-02T01:56:34.585Z,1.60
2023-03-02T01:59:08.292Z,1.80
2023-03-02T02:01:40.727Z,2.00
2023-03-02T02:04:09.217Z,2.10
2023-03-02T02:06:40.576Z,2.20
2023-03-02T02:09:13.845Z,2.10
2023-03-02T02:11:44.731Z,2.20
2023-03-02T02:14:13.566Z,2.20
2023-03-02T02:16:43.343Z,2.20
2023-03-02T02:19:19.462Z,2.30
2023-03-02T02:21:47.584Z,2.20
2023-03-02T02:24:21.988Z,2.20
2023-03-02T02:26:54.221Z,2.20
2023-03-02T02:29:26.044Z,2.20
2023-03-02T02:31:59.128Z,2.20
2023-03-02T02:34:32.088Z,2.10
2023-03-02T02:37:06.785Z,2.10
2023-03-02T02:39:38.525Z,2.10
2023-03-02T02:42:13.004Z,2.00
2023-03-02T02:44:41.409Z,2.00
2023-03-02T02:47:17.261Z,1.90
2023-03-02T02:49:46.016Z,1.90
2023-03-02T02:52:16.884Z,1.90
2023-03-02T02:54:47.703Z,1.90
2023-03-02T02:57:18.752Z,1.90
2023-03-02T02:59:50.315Z,1.90
2023-03-02T03:02:21.625Z,1.90
2023-03-02T03:04:50.336Z,1.90
2023-03-02T03:07:22.438Z,1.90
2023-03-02T03:09:58.697Z,1.90
2023-03-02T03:12:30.501Z,1.90
2023-03-02T03:14:59.268Z,1.80
2023-03-02T03:17:27.419Z,1.90
2023-03-02T03:20:06.550Z,1.80
2023-03-02T03:22:38.983Z,1.80
2023-03-02T03:25:09.691Z,1.70
2023-03-02T03:27:39.223Z,1.70
2023-03-02T03:30:08.448Z,1.70
2023-03-02T03:32:37.079Z,1.70
2023-03-02T03:35:08.810Z,1.70
2023-03-02T03:37:38.218Z,1.70
2023-03-02T03:40:09.537Z,1.70
2023-03-02T03:42:40.879Z,1.60
2023-03-02T03:45:09.761Z,1.60
2023-03-02T03:47:39.179Z,1.60
2023-03-02T03:50:10.705Z,1.60
2023-03-02T03:52:39.278Z,1.60
2023-03-02T03:55:16.320Z,1.70
2023-03-02T03:57:47.894Z,1.70
2023-03-02T04:00:18.386Z,1.60
2023-03-02T04:03:02.400Z,1.60
2023-03-02T04:05:32.794Z,1.50
2023-03-02T04:08:03.489Z,1.50
2023-03-02T04:10:32.767Z,1.50
2023-03-02T04:13:03.122Z,1.50
2023-03-02T04:15:32.508Z,1.50
2023-03-02T04:18:01.549Z,1.40
2023-03-02T04:20:31.107Z,1.40
2023-03-02T04:22:59.904Z,1.30
2023-03-02T04:25:30.084Z,1.30
2023-03-02T04:28:10.901Z,1.30
2023-03-02T04:30:41.267Z,1.30
2023-03-02T04:33:09.544Z,1.30
2023-03-02T04:35:38.384Z,1.30
2023-03-02T04:38:06.598Z,1.30
2023-03-02T04:40:35.112Z,1.20
2023-03-02T04:43:03.208Z,1.30
2023-03-02T04:45:32.995Z,1.10
2023-03-02T04:48:01.086Z,1.10
2023-03-02T04:50:29.181Z,1.20
2023-03-02T04:52:57.869Z,1.20
2023-03-02T04:55:28.301Z,1.20
2023-03-02T04:57:56.393Z,1.20
2023-03-02T05:00:25.152Z,1.20
2023-03-02T05:02:54.636Z,1.20
2023-03-02T05:05:25.437Z,1.10
2023-03-02T05:07:54.374Z,1.20
2023-03-02T05:10:23.551Z,1.20
2023-03-02T05:13:02.377Z,1.20
2023-03-02T05:15:34.698Z,1.20
2023-03-02T05:18:05.790Z,1.00
2023-03-02T05:20:34.462Z,1.00
2023-03-02T05:23:05.094Z,1.00
2023-03-02T05:25:35.372Z,1.00
2023-03-02T05:28:04.057Z,1.00
2023-03-02T05:30:37.465Z,1.00
2023-03-02T05:33:07.026Z,1.00
2023-03-02T05:35:35.382Z,0.90
2023-03-02T05:38:03.670Z,0.90
2023-03-02T05:40:32.528Z,0.80
2023-03-02T05:43:00.658Z,0.70
2023-03-02T05:45:33.770Z,0.70
2023-03-02T05:48:02.342Z,0.60
2023-03-02T05:50:33.200Z,0.60
2023-03-02T05:53:02.537Z,0.60
2023-03-02T05:55:31.072Z,0.60
2023-03-02T05:57:59.185Z,0.60
2023-03-02T06:00:27.443Z,0.60
2023-03-02T06:02:55.590Z,0.60
2023-03-02T06:05:24.596Z,0.60
2023-03-02T06:07:54.092Z,0.60
2023-03-02T06:10:22.241Z,0.60
2023-03-02T06:12:50.687Z,0.60
2023-03-02T06:15:19.459Z,0.60
2023-03-02T06:17:47.595Z,0.50
2023-03-02T06:20:18.295Z,0.50
2023-03-02T06:22:48.115Z,0.50
2023-03-02T06:25:20.750Z,0.40
2023-03-02T06:27:51.607Z,0.30
2023-03-02T06:30:23.031Z,0.30
2023-03-02T06:32:51.465Z,0.30
2023-03-02T06:35:20.055Z,0.20
2023-03-02T06:37:48.234Z,0.20
2023-03-02T06:40:17.925Z,0.20
2023-03-02T06:42:45.988Z,0.20
2023-03-02T06:45:14.177Z,0.20
2023-03-02T06:47:42.336Z,0.20
2023-03-02T06:50:12.220Z,0.20
2023-03-02T06:52:40.410Z,0.30
2023-03-02T06:55:09.593Z,0.30
2023-03-02T06:57:39.112Z,0.30
2023-03-02T07:00:10.064Z,0.30
2023-03-02T07:02:39.430Z,0.40
2023-03-02T07:05:08.683Z,0.40
2023-03-02T07:07:36.864Z,0.30
2023-03-02T07:10:05.350Z,0.40
2023-03-02T07:12:33.837Z,0.40
2023-03-02T07:15:03.816Z,0.40
2023-03-02T07:17:31.879Z,0.50
2023-03-02T07:19:59.973Z,0.50
2023-03-02T07:22:28.158Z,0.50
2023-03-02T07:24:56.248Z,0.50
2023-03-02T07:27:24.381Z,0.60
2023-03-02T07:29:52.535Z,0.60
2023-03-02T07:32:22.255Z,0.50
2023-03-02T07:34:50.742Z,0.60
2023-03-02T07:37:19.001Z,0.60
2023-03-02T07:39:49.013Z,0.60
2023-03-02T07:42:17.817Z,0.60
2023-03-02T07:44:49.118Z,0.30
2023-03-02T07:47:17.350Z,0.30
2023-03-02T07:49:46.902Z,0.40
2023-03-02T07:52:15.004Z,0.50
2023-03-02T07:54:43.244Z,0.60
2023-03-02T07:57:13.729Z,0.40
2023-03-02T07:59:42.156Z,0.40
2023-03-02T08:02:13.445Z,0.50
2023-03-02T08:04:42.140Z,0.60
2023-03-02T08:07:11.932Z,0.70
2023-03-02T08:09:40.427Z,0.70
2023-03-02T08:12:08.714Z,0.80
2023-03-02T08:14:37.289Z,0.80
2023-03-02T08:17:06.136Z,0.60
2023-03-02T08:19:34.855Z,0.40
2023-03-02T08:22:03.604Z,0.40
2023-03-02T08:24:33.387Z,0.60
2023-03-02T08:27:02.321Z,0.60
2023-03-02T08:29:31.263Z,0.70
2023-03-02T08:32:00.258Z,0.70
2023-03-02T08:34:28.477Z,0.60
2023-03-02T08:36:57.010Z,0.50
2023-03-02T08:39:25.420Z,0.50
2023-03-02T08:41:55.409Z,0.60
2023-03-02T08:44:23.540Z,0.70
2023-03-02T08:46:52.645Z,0.80
2023-03-02T08:49:21.237Z,1.00
2023-03-02T08:51:53.578Z,1.00
2023-03-02T08:54:22.338Z,0.90
2023-03-02T08:56:51.151Z,0.90
2023-03-02T08:59:21.690Z,0.90
2023-03-02T09:01:49.965Z,0.90
2023-03-02T09:04:18.213Z,1.00
2023-03-02T09:06:47.004Z,1.10
2023-03-02T09:09:16.260Z,1.20
2023-03-02T09:11:44.864Z,1.20
2023-03-02T09:14:13.426Z,1.30
2023-03-02T09:16:43.052Z,1.30
2023-03-02T09:19:12.788Z,1.50
2023-03-02T09:21:40.936Z,1.60
2023-03-02T09:24:09.674Z,1.70
2023-03-02T09:26:39.063Z,1.70
2023-03-02T09:29:07.906Z,1.60
2023-03-02T09:31:37.146Z,1.70
2023-03-02T09:34:07.290Z,1.70
2023-03-02T09:36:35.560Z,1.70
2023-03-02T09:39:08.529Z,1.80
2023-03-02T09:42:12.398Z,1.90
2023-03-02T09:45:33.860Z,1.80
2023-03-02T09:48:13.638Z,1.80
2023-03-02T09:50:53.328Z,1.90
2023-03-02T09:53:45.329Z,2.10
2023-03-02T09:56:17.083Z,2.20
2023-03-02T09:58:54.064Z,2.10
2023-03-02T10:01:33.623Z,2.20
2023-03-02T10:04:10.582Z,2.30
2023-03-02T10:06:40.181Z,2.50
2023-03-02T10:09:10.949Z,2.60
2023-03-02T10:11:55.902Z,2.50
2023-03-02T10:14:28.073Z,2.50
2023-03-02T10:17:09.381Z,2.60
2023-03-02T10:19:44.809Z,2.70
2023-03-02T10:22:20.909Z,2.80
2023-03-02T10:24:57.985Z,2.90
2023-03-02T10:27:32.113Z,3.00
2023-03-02T10:30:06.475Z,3.10
2023-03-02T10:32:38.889Z,3.00
2023-03-02T10:35:17.073Z,2.90
2023-03-02T10:37:46.616Z,2.80
2023-03-02T10:40:32.884Z,2.90
2023-03-02T10:43:02.067Z,3.00
2023-03-02T10:45:32.448Z,3.10
2023-03-02T10:48:04.874Z,3.00
2023-03-02T10:50:33.691Z,3.00
2023-03-02T10:53:05.261Z,2.80
2023-03-02T10:55:35.204Z,2.90
2023-03-02T10:58:06.551Z,2.90
2023-03-02T11:00:36.768Z,2.90
2023-03-02T11:03:07.960Z,2.90
2023-03-02T11:05:37.699Z,2.90
2023-03-02T11:08:10.800Z,3.00
2023-03-02T11:10:42.350Z,3.00
2023-03-02T11:13:19.060Z,3.10
2023-03-02T11:15:49.603Z,3.10
2023-03-02T11:18:26.232Z,3.20
2023-03-02T11:20:58.457Z,3.30
2023-03-02T11:23:45.164Z,3.30
2023-03-02T11:26:21.864Z,3.30
2023-03-02T11:29:00.838Z,3.40
2023-03-02T11:31:37.707Z,3.40
2023-03-02T11:34:29.682Z,3.40
2023-03-02T11:37:13.412Z,3.60
2023-03-02T11:39:59.285Z,3.70
2023-03-02T11:42:31.601Z,3.80
2023-03-02T11:45:03.701Z,4.00
2023-03-02T11:47:33.773Z,3.90
2023-03-02T11:53:01.330Z,3.80
2023-03-02T11:55:35.106Z,3.80
2023-03-02T11:58:05.025Z,3.80
2023-03-02T12:00:35.943Z,3.90
2023-03-02T12:03:07.005Z,3.90
2023-03-02T12:05:37.055Z,3.90
2023-03-02T12:08:07.643Z,3.90
2023-03-02T12:10:40.132Z,4.00
2023-03-02T12:13:16.383Z,3.90
2023-03-02T12:15:45.835Z,4.00
2023-03-02T12:18:29.066Z,4.00
2023-03-02T12:21:02.734Z,4.10
2023-03-02T12:23:31.925Z,4.10
2023-03-02T12:26:08.667Z,4.10
2023-03-02T12:28:39.694Z,4.10
2023-03-02T12:31:11.321Z,4.20
2023-03-02T12:33:44.464Z,4.30
2023-03-02T12:36:16.212Z,4.40
2023-03-02T12:38:51.325Z,4.40
2023-03-02T12:41:35.648Z,4.40
2023-03-02T12:44:17.710Z,4.40
2023-03-02T12:46:47.381Z,4.40
2023-03-02T12:49:36.379Z,4.50
2023-03-02T12:52:24.318Z,4.50
2023-03-02T12:55:02.464Z,4.60
2023-03-02T12:57:32.005Z,4.60
2023-03-02T13:00:03.657Z,4.60
2023-03-02T13:02:33.241Z,4.70
2023-03-02T13:05:03.873Z,4.70
2023-03-02T13:07:37.622Z,4.70
2023-03-02T13:10:10.624Z,4.60
2023-03-02T13:12:46.268Z,4.60
2023-03-02T13:15:17.585Z,4.70
2023-03-02T13:17:53.370Z,4.70
2023-03-02T13:20:23.578Z,4.80
2023-03-02T13:22:51.990Z,4.80
2023-03-02T13:25:25.093Z,4.80
2023-03-02T13:27:55.542Z,4.80
2023-03-02T13:30:28.004Z,4.90
2023-03-02T13:33:01.667Z,4.90
2023-03-02T13:35:31.696Z,5.00
2023-03-02T13:38:04.511Z,5.00
2023-03-02T13:40:41.533Z,5.10
2023-03-02T13:43:31.494Z,5.10
2023-03-02T13:46:01.432Z,5.10
2023-03-02T13:48:30.590Z,5.10
2023-03-02T13:51:01.233Z,5.10
2023-03-02T13:53:34.519Z,5.10
2023-03-02T13:56:02.864Z,5.10
2023-03-02T13:58:38.239Z,5.10
2023-03-02T14:01:07.803Z,5.10
2023-03-02T14:03:35.983Z,5.10
2023-03-02T14:06:06.057Z,5.20
2023-03-02T14:08:34.187Z,5.30
2023-03-02T14:11:04.374Z,5.10
2023-03-02T14:13:38.870Z,5.20
2023-03-02T14:16:07.925Z,5.10
2023-03-02T14:18:40.046Z,5.10
2023-03-02T14:21:14.823Z,5.10
2023-03-02T14:23:43.278Z,5.20
2023-03-02T14:26:28.512Z,5.30
2023-03-02T14:29:05.402Z,5.30
2023-03-02T14:31:34.668Z,5.30
2023-03-02T14:34:03.122Z,5.40
2023-03-02T14:36:33.598Z,5.40
2023-03-02T14:39:04.048Z,5.40
2023-03-02T14:41:38.331Z,5.40
2023-03-02T14:44:12.858Z,5.40
2023-03-02T14:46:41.025Z,5.40
2023-03-02T14:49:09.153Z,5.50
2023-03-02T14:51:40.006Z,5.60
2023-03-02T14:54:13.958Z,5.60
2023-03-02T14:56:43.429Z,5.60
2023-03-02T14:59:14.873Z,5.60
2023-03-02T15:01:44.564Z,5.60
2023-03-02T15:04:12.768Z,5.50
2023-03-02T15:06:43.392Z,5.50
2023-03-02T15:09:12.160Z,5.50
2023-03-02T15:11:40.313Z,5.50
2023-03-02T15:14:08.405Z,5.50
2023-03-02T15:16:37.857Z,5.60
2023-03-02T15:19:06.207Z,5.60
2023-03-02T15:21:34.513Z,5.60
2023-03-02T15:24:04.129Z,5.60
2023-03-02T15:26:32.350Z,5.60
2023-03-02T15:29:00.435Z,5.60
2023-03-02T15:31:29.161Z,5.60
2023-03-02T15:33:58.983Z,5.60
2023-03-02T15:36:27.284Z,5.60
2023-03-02T15:38:55.677Z,5.60
2023-03-02T15:41:23.798Z,5.60
2023-03-02T15:43:52.215Z,5.70
2023-03-02T15:46:20.957Z,5.70
2023-03-02T15:48:49.174Z,5.70
2023-03-02T15:51:18.774Z,5.70
2023-03-02T15:53:47.218Z,5.80
2023-03-02T15:56:17.060Z,5.70
2023-03-02T15:58:48.024Z,5.70
2023-03-02T16:01:17.192Z,5.60
2023-03-02T16:03:46.435Z,5.70
2023-03-02T16:06:15.864Z,5.60
2023-03-02T16:08:45.484Z,5.70
2023-03-02T16:11:18.735Z,5.70
2023-03-02T16:13:47.227Z,5.80
2023-03-02T16:16:15.651Z,5.80
2023-03-02T16:18:43.769Z,5.80
2023-03-02T16:21:14.461Z,5.90
2023-03-02T16:23:42.678Z,5.90
2023-03-02T16:26:15.385Z,6.00
2023-03-02T16:28:44.097Z,6.00
2023-03-02T16:31:14.798Z,6.10
2023-03-02T16:33:43.211Z,6.10
2023-03-02T16:36:12.730Z,6.10
2023-03-02T16:38:41.512Z,6.10
2023-03-02T16:41:15.885Z,6.10
2023-03-02T16:43:46.824Z,6.10
2023-03-02T16:46:15.318Z,6.00
2023-03-02T16:48:44.264Z,6.00
2023-03-02T16:51:12.846Z,6.00
2023-03-02T16:53:41.681Z,5.90
2023-03-02T16:56:10.837Z,5.90
2023-03-02T16:58:41.479Z,5.90
2023-03-02T17:01:11.576Z,5.90
2023-03-02T17:03:39.880Z,5.90
2023-03-02T17:06:09.526Z,5.80
2023-03-02T17:08:38.899Z,5.80
2023-03-02T17:11:07.536Z,5.80
2023-03-02T17:13:35.943Z,5.70
2023-03-02T17:16:06.332Z,5.60
2023-03-02T17:18:34.951Z,5.60
2023-03-02T17:21:04.492Z,5.50
2023-03-02T17:23:32.703Z,5.40
2023-03-02T17:26:00.939Z,5.40
2023-03-02T17:28:29.538Z,5.30
2023-03-02T17:30:58.109Z,5.20
2023-03-02T17:33:29.533Z,5.20
2023-03-02T17:35:57.640Z,5.10
2023-03-02T17:38:25.782Z,5.00
2023-03-02T17:40:53.879Z,4.90
2023-03-02T17:43:22.048Z,4.90
2023-03-02T17:45:50.236Z,4.80
2023-03-02T17:48:20.331Z,4.70
2023-03-02T17:50:49.811Z,4.60
2023-03-02T17:53:17.931Z,4.50
2023-03-02T17:55:46.309Z,4.40
2023-03-02T17:58:15.404Z,4.40
2023-03-02T18:00:43.577Z,4.30
2023-03-02T18:03:11.784Z,4.20
2023-03-02T18:05:39.975Z,4.10
2023-03-02T18:08:09.559Z,4.10
2023-03-02T18:10:37.682Z,4.00
2023-03-02T18:13:05.952Z,4.00
2023-03-02T18:15:34.210Z,4.00
2023-03-02T18:18:02.386Z,4.00
2023-03-02T18:20:30.580Z,3.90
2023-03-02T18:22:59.105Z,3.90
2023-03-02T18:25:29.165Z,3.90
2023-03-02T18:27:57.689Z,3.90
2023-03-02T18:30:26.002Z,3.80
2023-03-02T18:32:54.194Z,3.80
2023-03-02T18:35:22.806Z,3.80
2023-03-02T18:37:51.431Z,3.80
2023-03-02T18:40:20.074Z,3.90
2023-03-02T18:42:49.551Z,3.90
2023-03-02T18:45:22.670Z,3.80
2023-03-02T18:47:50.853Z,3.80
2023-03-02T18:50:19.602Z,3.70
2023-03-02T18:52:47.921Z,3.70
2023-03-02T18:55:16.035Z,3.60
2023-03-02T18:57:44.564Z,3.50
2023-03-02T19:00:18.785Z,3.50
2023-03-02T19:02:47.055Z,3.50
2023-03-02T19:05:15.159Z,3.60
2023-03-02T19:07:43.259Z,3.60
2023-03-02T19:10:12.558Z,3.50
2023-03-02T19:12:40.715Z,3.50
2023-03-02T19:15:10.885Z,3.40
2023-03-02T19:17:42.663Z,3.30
2023-03-02T19:20:15.419Z,3.20
2023-03-02T19:22:44.011Z,3.10
2023-03-02T19:25:13.022Z,3.10
2023-03-02T19:27:41.199Z,3.10
2023-03-02T19:30:15.394Z,3.20
2023-03-02T19:32:44.858Z,3.30
2023-03-02T19:35:17.876Z,3.30
2023-03-02T19:37:46.196Z,3.30
2023-03-02T19:40:17.321Z,3.30
2023-03-02T19:42:46.160Z,3.30
2023-03-02T19:45:17.255Z,3.40
2023-03-02T19:47:47.083Z,3.40
2023-03-02T19:50:17.286Z,3.30
2023-03-02T19:52:45.898Z,3.20
2023-03-02T19:55:15.694Z,3.10
2023-03-02T19:57:43.980Z,3.00
2023-03-02T20:00:16.340Z,2.90
2023-03-02T20:02:46.168Z,2.80
2023-03-02T20:05:14.791Z,2.80
2023-03-02T20:07:43.656Z,2.80
2023-03-02T20:10:14.224Z,2.80
2023-03-02T20:12:42.674Z,2.80
2023-03-02T20:15:11.485Z,2.90
2023-03-02T20:17:39.555Z,2.90
2023-03-02T20:20:11.084Z,3.00
2023-03-02T20:22:39.174Z,3.00
2023-03-02T20:25:08.726Z,2.90
2023-03-02T20:27:36.902Z,2.90
2023-03-02T20:30:07.675Z,2.90
2023-03-02T20:32:35.841Z,2.80
2023-03-02T20:35:04.129Z,2.90
2023-03-02T20:37:33.693Z,2.90
2023-03-02T20:40:02.285Z,2.90
2023-03-02T20:42:33.987Z,3.00
2023-03-02T20:45:02.917Z,3.00
2023-03-02T20:47:31.427Z,3.10
2023-03-02T20:49:59.863Z,3.00
2023-03-02T20:52:28.465Z,3.00
2023-03-02T20:54:58.103Z,3.10
2023-03-02T20:57:26.251Z,3.10
2023-03-02T20:59:54.365Z,3.10
2023-03-02T21:02:23.164Z,3.10
2023-03-02T21:04:51.531Z,3.10
2023-03-02T21:07:19.629Z,3.20
2023-03-02T21:09:48.561Z,3.20
2023-03-02T21:12:18.254Z,3.20
2023-03-02T21:14:46.681Z,3.20
2023-03-02T21:17:15.120Z,3.20
2023-03-02T21:19:43.266Z,3.20
2023-03-02T21:22:11.414Z,3.20
2023-03-02T21:24:39.525Z,3.20
2023-03-02T21:27:08.459Z,3.20
2023-03-02T21:29:38.051Z,3.30
2023-03-02T21:32:07.739Z,3.30
2023-03-02T21:34:38.402Z,3.30
2023-03-02T21:37:07.059Z,3.20
2023-03-02T21:39:35.183Z,3.30
2023-03-02T21:42:03.719Z,3.30
2023-03-02T21:44:31.775Z,3.30
2023-03-02T21:47:01.276Z,3.30
2023-03-02T21:49:29.469Z,3.30
2023-03-02T21:51:57.928Z,3.30
2023-03-02T21:54:26.123Z,3.30
2023-03-02T21:56:54.200Z,3.30
2023-03-02T21:59:22.344Z,3.40
2023-03-02T22:01:50.553Z,3.40
2023-03-02T22:04:20.150Z,3.40
2023-03-02T22:06:48.246Z,3.40
2023-03-02T22:09:16.424Z,3.30
2023-03-02T22:11:45.832Z,3.30
2023-03-02T22:14:16.569Z,3.30
2023-03-02T22:16:47.843Z,3.30
2023-03-02T22:19:25.461Z,3.20
2023-03-02T22:21:55.067Z,3.20
2023-03-02T22:24:25.643Z,3.10
2023-03-02T22:26:59.518Z,3.10
2023-03-02T22:29:30.566Z,3.10
2023-03-02T22:32:07.672Z,3.10
2023-03-02T22:34:37.918Z,3.00
2023-03-02T22:37:12.652Z,3.00
2023-03-02T22:39:42.294Z,3.00
2023-03-02T22:42:14.531Z,3.00
2023-03-02T22:44:43.329Z,3.10
2023-03-02T22:47:16.577Z,3.10
2023-03-02T22:49:46.503Z,3.10
2023-03-02T22:52:17.412Z,3.00
2023-03-02T22:54:46.685Z,3.00
2023-03-02T22:57:32.240Z,2.90
2023-03-02T23:00:31.685Z,2.90
2023-03-02T23:02:59.859Z,2.80
2023-03-02T23:05:31.075Z,2.80
2023-03-02T23:08:15.829Z,2.80
2023-03-02T23:10:44.059Z,2.90
2023-03-02T23:13:14.201Z,2.90
2023-03-02T23:15:42.566Z,2.90
2023-03-02T23:18:18.130Z,2.90
2023-03-02T23:20:47.721Z,2.90
2023-03-02T23:23:16.165Z,2.80
2023-03-02T23:25:44.265Z,2.70
2023-03-02T23:28:12.419Z,2.60
2023-03-02T23:30:40.856Z,2.70
2023-03-02T23:33:09.108Z,2.60
2023-03-02T23:35:37.296Z,2.60
2023-03-02T23:38:06.757Z,2.70
2023-03-02T23:40:35.231Z,2.60
2023-03-02T23:43:03.629Z,2.60
2023-03-02T23:45:31.840Z,2.50
2023-03-02T23:47:59.983Z,2.50
2023-03-02T23:50:28.087Z,2.40
2023-03-02T23:52:56.213Z,2.30
2023-03-02T23:55:25.797Z,2.30
2023-03-02T23:57:53.927Z,2.20
